Time;durP1;ratioP1;P1;durP2;ratioP2;P2;SDS_P1;SDS_P2;PMS_P1;PMS_P2;Temp;Humidity;BMP_temperature;BMP_pressure;BME280_temperature;BME280_humidity;BME280_pressure;Samples;Min_cycle;Max_cycle;Signal;HPM_P1;HPM_P2
2024/02/12 00:01:55;;;;;;;3.97;1.73;;;17.30;61.70;;;;;;6224930;22;20147;-87
2024/02/12 00:04:24;;;;;;;3.25;1.70;;;17.30;61.70;;;;;;6224448;22;20611;-85
2024/02/12 00:06:49;;;;;;;2.47;1.80;;;17.20;61.90;;;;;;6223669;22;20171;-85
2024/02/12 00:09:16;;;;;;;3.78;2.08;;;17.30;61.80;;;;;;6249410;22;20544;-85
2024/02/12 00:11:45;;;;;;;4.90;2.03;;;17.20;61.60;;;;;;6223616;22;20144;-86
2024/02/12 00:14:15;;;;;;;3.22;1.88;;;17.20;62.00;;;;;;6196986;22;20483;-86
2024/02/12 00:16:45;;;;;;;2.60;1.85;;;17.20;61.70;;;;;;6195993;22;22082;-85
2024/02/12 00:19:12;;;;;;;4.30;2.13;;;17.30;61.90;;;;;;6173488;22;20718;-86
2024/02/12 00:21:42;;;;;;;3.40;2.05;;;17.30;61.90;;;;;;6248683;22;20133;-85
2024/02/12 00:24:10;;;;;;;2.88;1.85;;;17.30;61.90;;;;;;6149472;22;20153;-87
2024/02/12 00:26:42;;;;;;;3.83;1.95;;;17.20;61.90;;;;;;6171757;22;20523;-86
2024/02/12 00:29:14;;;;;;;2.53;2.10;;;17.30;62.00;;;;;;6196455;22;20153;-85
2024/02/12 00:31:40;;;;;;;3.50;1.73;;;17.20;62.00;;;;;;6148880;22;20195;-86
2024/02/12 00:34:06;;;;;;;2.08;1.60;;;17.20;61.90;;;;;;6248668;22;20141;-86
2024/02/12 00:36:32;;;;;;;2.38;1.77;;;17.20;61.60;;;;;;6223138;22;20140;-86
2024/02/12 00:38:58;;;;;;;3.55;1.80;;;17.20;61.90;;;;;;6248512;22;20137;-86
2024/02/12 00:41:28;;;;;;;2.85;2.08;;;17.20;62.00;;;;;;6248330;22;20141;-85
2024/02/12 00:43:54;;;;;;;3.47;1.90;;;17.20;62.00;;;;;;6172137;22;20235;-86
2024/02/12 00:46:19;;;;;;;2.10;1.80;;;17.20;61.90;;;;;;6222836;22;20168;-87
2024/02/12 00:48:46;;;;;;;2.83;1.90;;;17.20;62.90;;;;;;6222805;22;20155;-85
2024/02/12 00:51:12;;;;;;;2.20;1.80;;;17.20;62.00;;;;;;6222511;22;20216;-85
2024/02/12 00:53:40;;;;;;;3.05;2.05;;;17.20;61.80;;;;;;6247842;22;20219;-87
2024/02/12 00:56:06;;;;;;;2.63;1.75;;;17.20;62.00;;;;;;6223100;22;20172;-85
2024/02/12 00:58:37;;;;;;;2.97;1.95;;;17.20;61.90;;;;;;6222701;22;20630;-86
2024/02/12 01:01:03;;;;;;;2.53;1.92;;;17.20;61.90;;;;;;6172435;22;20183;-85
2024/02/12 01:03:31;;;;;;;2.13;1.85;;;17.20;61.80;;;;;;6197614;22;20144;-86
2024/02/12 01:05:57;;;;;;;3.13;1.83;;;17.20;61.60;;;;;;6199846;22;20133;-86
2024/02/12 01:08:27;;;;;;;2.45;1.88;;;17.20;62.10;;;;;;6225112;22;20144;-85
2024/02/12 01:10:53;;;;;;;3.05;2.05;;;17.10;61.90;;;;;;6174261;22;20623;-87
2024/02/12 01:13:19;;;;;;;2.58;1.88;;;17.10;62.00;;;;;;6225595;22;20133;-85
2024/02/12 01:15:49;;;;;;;2.83;2.15;;;17.10;61.90;;;;;;6199638;22;20538;-86
2024/02/12 01:18:15;;;;;;;3.25;1.88;;;17.10;62.00;;;;;;6200448;22;20176;-85
2024/02/12 01:20:44;;;;;;;2.22;1.88;;;17.10;62.10;;;;;;6224549;22;20137;-86
2024/02/12 01:23:12;;;;;;;2.40;1.67;;;17.10;62.00;;;;;;6174058;22;20148;-86
2024/02/12 01:25:41;;;;;;;2.60;2.10;;;17.20;61.80;;;;;;6200062;22;20168;-86
2024/02/12 01:28:08;;;;;;;3.53;1.73;;;17.20;62.00;;;;;;6200704;22;20137;-85
2024/02/12 01:30:36;;;;;;;2.20;1.73;;;17.10;61.90;;;;;;6173311;22;20156;-86
2024/02/12 01:33:03;;;;;;;3.85;1.88;;;17.10;61.80;;;;;;6200015;22;20144;-88
2024/02/12 01:35:29;;;;;;;3.03;1.90;;;17.10;62.00;;;;;;6249763;22;20573;-89
2024/02/12 01:37:55;;;;;;;2.40;1.80;;;17.10;61.80;;;;;;6225102;22;20173;-87
2024/02/12 01:40:21;;;;;;;2.95;2.08;;;17.10;62.00;;;;;;6224392;22;20141;-88
2024/02/12 01:56:59;;;;;;;3.08;2.10;;;17.10;62.00;;;;;;6305639;22;20207;-88
2024/02/12 01:59:25;;;;;;;2.17;1.80;;;17.10;62.10;;;;;;6281594;22;20132;-87
2024/02/12 02:01:52;;;;;;;3.58;1.98;;;17.10;62.20;;;;;;6230284;22;20241;-86
2024/02/12 02:04:18;;;;;;;3.00;1.90;;;17.10;62.10;;;;;;6255960;22;20140;-87
2024/02/12 02:06:53;;;;;;;3.45;2.20;;;17.10;62.10;;;;;;6255396;22;20223;-87
2024/02/12 02:09:19;;;;;;;2.72;1.90;;;17.10;62.10;;;;;;6230986;22;20223;-89
2024/02/12 02:11:44;;;;;;;2.45;1.95;;;17.10;62.10;;;;;;6255811;22;20490;-88
2024/02/12 02:14:11;;;;;;;2.88;1.95;;;17.10;61.80;;;;;;6281202;22;20133;-87
2024/02/12 02:16:38;;;;;;;2.42;1.58;;;17.10;61.90;;;;;;6256625;22;20137;-86
2024/02/12 02:19:04;;;;;;;3.38;2.03;;;17.10;61.90;;;;;;6230026;22;20583;-87
2024/02/12 02:21:31;;;;;;;4.40;1.88;;;17.10;61.90;;;;;;6255922;22;20128;-86
2024/02/12 02:26:24;;;;;;;3.47;2.10;;;17.10;62.00;;;;;;6279076;22;20200;-88
2024/02/12 02:28:49;;;;;;;3.00;2.22;;;17.00;61.80;;;;;;6254589;22;20148;-88
2024/02/12 02:31:15;;;;;;;3.33;1.90;;;17.00;61.90;;;;;;6228795;22;20148;-88
2024/02/12 02:33:41;;;;;;;2.17;1.77;;;17.00;61.90;;;;;;6253903;22;20528;-88
2024/02/12 02:36:11;;;;;;;2.38;1.92;;;17.00;61.80;;;;;;6254689;22;20231;-86
2024/02/12 02:38:37;;;;;;;3.15;1.95;;;17.10;62.00;;;;;;6226413;22;20188;-87
2024/02/12 02:41:03;;;;;;;3.00;1.88;;;17.00;61.70;;;;;;6279749;22;20151;-86
2024/02/12 02:45:54;;;;;;;2.85;1.92;;;17.10;61.90;;;;;;6305490;22;20214;-85
2024/02/12 02:48:20;;;;;;;2.50;1.70;;;17.00;61.80;;;;;;6254111;22;20140;-86
2024/02/12 02:50:47;;;;;;;2.90;2.08;;;17.10;62.10;;;;;;6282258;22;20128;-86
2024/02/12 02:55:38;;;;;;;3.05;2.10;;;17.00;61.80;;;;;;6277715;22;20191;-85
2024/02/12 02:58:05;;;;;;;3.80;2.13;;;17.10;61.80;;;;;;6267419;22;20180;-85
2024/02/12 03:00:33;;;;;;;2.97;2.03;;;17.10;61.80;;;;;;6282923;22;20482;-85
2024/02/12 03:03:00;;;;;;;3.00;2.10;;;17.10;61.80;;;;;;6255014;22;20148;-88
2024/02/12 03:05:27;;;;;;;2.67;2.00;;;17.10;61.90;;;;;;6255849;22;20634;-86
2024/02/12 03:07:54;;;;;;;3.05;2.05;;;17.00;61.80;;;;;;6282399;22;20254;-86
2024/02/12 03:10:20;;;;;;;2.60;2.08;;;17.00;61.80;;;;;;6283153;22;20190;-86
2024/02/12 03:12:48;;;;;;;2.83;2.00;;;17.00;61.80;;;;;;6254443;22;20640;-87
2024/02/12 03:15:15;;;;;;;3.15;1.90;;;17.00;61.80;;;;;;6202603;22;20201;-87
2024/02/12 03:17:42;;;;;;;2.40;2.05;;;17.00;62.00;;;;;;6203031;22;20187;-86
2024/02/12 03:20:09;;;;;;;2.30;1.90;;;17.10;62.00;;;;;;6277579;22;20200;-86
2024/02/12 03:22:39;;;;;;;3.58;2.10;;;17.00;62.00;;;;;;6280149;22;20140;-87
2024/02/12 03:27:53;;;;;;;2.85;1.80;;;17.00;61.90;;;;;;6294134;22;20195;-86
2024/02/12 03:30:19;;;;;;;2.50;2.00;;;17.00;61.70;;;;;;6254960;22;20236;-86
2024/02/12 03:32:46;;;;;;;3.55;2.10;;;17.00;61.80;;;;;;6255600;22;20209;-86
2024/02/12 03:35:12;;;;;;;3.58;2.15;;;17.00;61.70;;;;;;6255642;22;20136;-87
2024/02/12 03:37:40;;;;;;;4.22;2.20;;;17.00;61.60;;;;;;6254704;22;20221;-87
2024/02/12 03:42:41;;;;;;;2.83;2.00;;;17.00;61.80;;;;;;6299539;22;20514;-86
2024/02/12 03:45:13;;;;;;;2.75;2.00;;;17.00;61.60;;;;;;6258740;22;20143;-86
2024/02/12 03:47:39;;;;;;;2.38;2.03;;;17.00;61.60;;;;;;6235080;22;20159;-86
2024/02/12 04:00:46;;;;;;;3.42;2.15;;;17.10;61.80;;;;;;6290671;22;20439;-86
2024/02/12 04:03:13;;;;;;;3.90;1.90;;;17.00;61.70;;;;;;6258407;22;20226;-87
2024/02/12 04:05:39;;;;;;;4.03;2.20;;;17.00;61.80;;;;;;6284369;22;20150;-86
2024/02/12 04:08:09;;;;;;;2.42;1.90;;;17.00;61.70;;;;;;6309827;22;20139;-85
2024/02/12 04:10:39;;;;;;;2.50;2.00;;;17.00;61.70;;;;;;6284500;22;20139;-86
2024/02/12 04:13:05;;;;;;;2.67;1.92;;;17.00;61.70;;;;;;6257368;22;20143;-87
2024/02/12 04:15:35;;;;;;;2.70;2.05;;;17.00;61.60;;;;;;6309971;22;20163;-87
2024/02/12 04:18:03;;;;;;;3.75;2.17;;;17.00;61.70;;;;;;6309830;22;20170;-85
2024/02/12 04:20:29;;;;;;;2.50;1.90;;;17.00;61.80;;;;;;6284230;22;20151;-85
2024/02/12 04:25:32;;;;;;;4.60;2.10;;;17.00;61.80;;;;;;6303239;22;20187;-85
2024/02/12 04:28:00;;;;;;;3.38;2.30;;;16.90;61.80;;;;;;6277868;22;20465;-86
2024/02/12 04:30:29;;;;;;;3.03;2.15;;;17.00;61.70;;;;;;6254066;22;20120;-87
2024/02/12 04:32:59;;;;;;;2.17;1.85;;;17.00;61.80;;;;;;6254144;22;20556;-86
2024/02/12 04:35:30;;;;;;;3.08;2.13;;;17.00;61.70;;;;;;6226527;22;20389;-86
2024/02/12 04:47:47;;;;;;;3.60;2.30;;;16.90;61.60;;;;;;6307199;22;20654;-86
2024/02/12 04:50:13;;;;;;;2.15;1.83;;;17.00;61.50;;;;;;6256690;22;20526;-87
2024/02/12 04:52:40;;;;;;;3.15;2.03;;;17.00;61.30;;;;;;6307612;22;20135;-85
2024/02/12 04:55:11;;;;;;;2.55;1.90;;;17.00;61.20;;;;;;6306396;22;20140;-86
2024/02/12 04:57:38;;;;;;;2.50;1.98;;;17.00;61.50;;;;;;6229374;22;20179;-86
2024/02/12 05:02:40;;;;;;;3.30;2.10;;;17.00;61.40;;;;;;6304293;22;20461;-85
2024/02/12 05:05:07;;;;;;;3.13;2.40;;;16.90;61.70;;;;;;6265840;22;20669;-85
2024/02/12 05:07:33;;;;;;;3.40;2.40;;;17.00;61.70;;;;;;6312273;22;20226;-86
2024/02/12 05:09:59;;;;;;;3.38;2.17;;;16.90;61.70;;;;;;6260660;22;20808;-89
2024/02/12 05:12:26;;;;;;;2.53;2.10;;;16.90;61.60;;;;;;6250396;22;20518;-84
2024/02/12 05:14:52;;;;;;;2.90;2.15;;;16.90;61.50;;;;;;6317312;22;20636;-86
2024/02/12 05:17:23;;;;;;;4.55;2.30;;;16.90;61.70;;;;;;6293213;22;20198;-84
2024/02/12 05:27:21;;;;;;;3.40;2.00;;;16.90;61.40;;;;;;6330703;22;20229;-86
2024/02/12 05:29:47;;;;;;;2.45;2.05;;;17.00;61.40;;;;;;6285019;22;20140;-87
2024/02/12 05:32:13;;;;;;;3.13;2.10;;;17.00;61.40;;;;;;6286225;22;20227;-86
2024/02/12 05:34:41;;;;;;;3.10;2.35;;;16.90;61.40;;;;;;6285765;22;20167;-87
2024/02/12 05:37:07;;;;;;;4.13;2.38;;;16.90;61.40;;;;;;6285959;22;20195;-87
2024/02/12 05:39:33;;;;;;;3.15;2.30;;;16.90;61.30;;;;;;6285440;22;20128;-85
2024/02/12 05:41:59;;;;;;;3.42;2.08;;;16.90;61.10;;;;;;6260447;22;20143;-85
2024/02/12 05:44:25;;;;;;;3.70;2.00;;;16.90;61.40;;;;;;6260670;22;20144;-85
2024/02/12 05:46:53;;;;;;;3.28;2.15;;;16.90;61.30;;;;;;6311484;22;20148;-87
2024/02/12 05:49:25;;;;;;;3.60;2.22;;;16.80;61.20;;;;;;6259887;22;20227;-86
2024/02/12 05:51:51;;;;;;;2.53;2.00;;;16.90;61.20;;;;;;6285778;22;20196;-87
2024/02/12 05:54:17;;;;;;;3.75;2.25;;;16.90;61.40;;;;;;6259588;22;20222;-86
2024/02/12 05:56:43;;;;;;;3.00;2.50;;;16.90;61.20;;;;;;6284444;22;20146;-87
2024/02/12 05:59:15;;;;;;;3.05;2.25;;;16.90;61.30;;;;;;6284623;22;20148;-87
2024/02/12 06:01:41;;;;;;;2.95;2.10;;;16.90;61.20;;;;;;6258231;22;20139;-86
2024/02/12 06:04:12;;;;;;;3.38;2.30;;;16.90;61.30;;;;;;6257886;22;20144;-86
2024/02/12 06:06:39;;;;;;;3.25;2.33;;;17.00;61.40;;;;;;6257770;22;20154;-86
2024/02/12 06:09:07;;;;;;;3.40;2.10;;;16.90;61.30;;;;;;6260075;22;20208;-85
2024/02/12 06:11:33;;;;;;;3.42;2.42;;;16.90;61.20;;;;;;6285443;22;20478;-86
2024/02/12 06:13:59;;;;;;;3.85;2.30;;;16.90;61.40;;;;;;6259606;22;20566;-87
2024/02/12 06:16:28;;;;;;;3.03;2.22;;;16.90;61.30;;;;;;6285052;22;20128;-87
2024/02/12 06:19:01;;;;;;;3.88;2.10;;;16.90;61.30;;;;;;6232545;22;20194;-87
2024/02/12 06:21:31;;;;;;;3.08;2.00;;;16.90;61.30;;;;;;6234281;22;20154;-86
2024/02/12 06:23:58;;;;;;;3.53;2.10;;;16.90;61.20;;;;;;6232955;22;20147;-88
2024/02/12 06:26:24;;;;;;;4.22;2.35;;;16.90;61.20;;;;;;6253443;22;20199;-86
2024/02/12 06:28:51;;;;;;;3.30;2.10;;;16.90;61.00;;;;;;6276685;22;20246;-87
2024/02/12 06:31:18;;;;;;;3.63;2.55;;;16.90;60.80;;;;;;6229764;23;20154;-86
2024/02/12 06:33:50;;;;;;;2.83;2.30;;;16.90;61.00;;;;;;6256726;22;20167;-88
2024/02/12 06:36:20;;;;;;;2.58;2.05;;;16.90;60.80;;;;;;6228840;23;20153;-87
2024/02/12 06:38:49;;;;;;;2.63;2.10;;;16.90;61.00;;;;;;6179544;22;20194;-87
2024/02/12 06:41:19;;;;;;;3.45;2.30;;;16.90;61.00;;;;;;6180373;22;20154;-86
2024/02/12 06:43:48;;;;;;;3.67;2.35;;;16.90;61.00;;;;;;6207580;22;20200;-86
2024/02/12 06:46:18;;;;;;;3.05;2.22;;;16.90;61.00;;;;;;6231899;22;20178;-87
2024/02/12 06:48:45;;;;;;;4.03;2.50;;;16.90;61.00;;;;;;6232285;22;20155;-86
2024/02/12 06:51:14;;;;;;;3.38;2.30;;;16.90;61.20;;;;;;6259141;22;20139;-86
2024/02/12 06:53:44;;;;;;;4.07;2.50;;;17.00;61.00;;;;;;6232036;22;20151;-86
2024/02/12 06:56:10;;;;;;;2.47;2.03;;;16.90;60.90;;;;;;6282879;22;20142;-86
2024/02/12 06:58:36;;;;;;;3.40;2.70;;;16.90;61.00;;;;;;6260252;22;20175;-87
2024/02/12 07:01:04;;;;;;;3.92;2.60;;;16.90;60.90;;;;;;6285831;22;20131;-86
2024/02/12 07:03:32;;;;;;;4.45;2.40;;;17.00;60.80;;;;;;6258581;22;20631;-86
2024/02/12 07:06:01;;;;;;;3.67;2.30;;;16.90;60.80;;;;;;6259529;22;20138;-86
2024/02/12 07:08:27;;;;;;;2.55;2.20;;;16.90;60.50;;;;;;6218700;23;20184;-87
2024/02/12 07:10:57;;;;;;;2.70;2.30;;;17.00;60.30;;;;;;6217632;23;20153;-85
2024/02/12 07:13:26;;;;;;;3.60;2.50;;;17.00;60.00;;;;;;6166848;23;20219;-85
2024/02/12 07:15:55;;;;;;;3.67;2.40;;;17.00;60.00;;;;;;6166451;23;20183;-86
2024/02/12 07:18:21;;;;;;;3.13;2.35;;;17.00;60.50;;;;;;6166599;23;20193;-86
2024/02/12 07:21:42;;;;;;;;;;;;;;;;;;;;;
2024/02/12 08:05:50;;;;;;;2.72;2.20;;;17.20;57.80;;;;;;6398523;22;20181;-88
2024/02/12 08:09:04;;;;;;;2.85;2.10;;;17.30;58.30;;;;;;6313980;22;20155;-88
2024/02/12 08:11:42;;;;;;;4.10;1.90;;;17.40;58.10;;;;;;6315631;22;20127;-86
2024/02/12 08:14:11;;;;;;;3.20;2.40;;;17.40;58.10;;;;;;6240946;22;20158;-84
2024/02/12 08:16:52;;;;;;;3.53;2.20;;;17.40;58.50;;;;;;6242555;22;20144;-86
2024/02/12 08:29:16;;;;;;;3.15;2.30;;;17.50;57.80;;;;;;6153920;23;20192;-86
2024/02/12 08:31:43;;;;;;;5.28;2.25;;;17.40;58.80;;;;;;6173969;23;20197;-85
2024/02/12 08:34:11;;;;;;;3.65;2.40;;;17.50;57.90;;;;;;6201883;23;20146;-84
2024/02/12 08:36:43;;;;;;;6.32;2.08;;;17.50;58.10;;;;;;6178311;23;20153;-84
2024/02/12 08:39:13;;;;;;;4.88;2.28;;;17.50;58.40;;;;;;6176524;23;20739;-85
2024/02/12 08:41:55;;;;;;;3.88;2.30;;;17.40;58.70;;;;;;6173620;23;20151;-85
2024/02/12 08:44:26;;;;;;;4.88;2.35;;;17.50;58.00;;;;;;6147132;23;20582;-84
2024/02/12 08:46:53;;;;;;;6.82;2.17;;;17.50;58.70;;;;;;6118971;23;20147;-84
2024/02/12 08:49:22;;;;;;;3.00;2.00;;;17.60;57.30;;;;;;6192119;23;20139;-85
2024/02/12 08:51:50;;;;;;;4.22;2.55;;;17.60;57.60;;;;;;6140258;23;20154;-85
2024/02/12 08:54:16;;;;;;;4.43;2.50;;;17.70;57.60;;;;;;6140525;23;20303;-86
2024/02/12 08:56:42;;;;;;;4.18;2.25;;;17.70;56.90;;;;;;6141879;23;20155;-86
2024/02/12 08:59:09;;;;;;;4.28;2.30;;;17.70;57.50;;;;;;6141114;23;20242;-85
2024/02/12 09:01:43;;;;;;;3.72;2.40;;;17.80;57.30;;;;;;6139777;23;20166;-83
2024/02/12 09:04:10;;;;;;;3.42;2.10;;;17.70;57.30;;;;;;6128099;23;20163;-85
2024/02/12 09:06:38;;;;;;;4.00;2.25;;;17.70;56.90;;;;;;6147745;23;20248;-86
2024/02/12 09:09:04;;;;;;;3.25;2.40;;;17.80;57.40;;;;;;6162326;23;20264;-85
2024/02/12 09:11:30;;;;;;;3.88;2.20;;;17.70;57.40;;;;;;6199547;23;20145;-85
2024/02/12 09:13:57;;;;;;;3.25;2.30;;;17.70;57.30;;;;;;6177966;23;20169;-85
2024/02/12 09:16:26;;;;;;;6.53;2.70;;;17.80;57.80;;;;;;6225820;23;20594;-86
2024/02/12 09:18:58;;;;;;;5.15;2.00;;;17.70;58.20;;;;;;6199220;23;20249;-85
2024/02/12 09:21:30;;;;;;;7.38;2.65;;;17.70;57.90;;;;;;6174071;23;20517;-86
2024/02/12 09:23:55;;;;;;;6.22;2.55;;;17.60;58.80;;;;;;6200305;23;20164;-86
2024/02/12 09:26:25;;;;;;;3.58;2.60;;;17.70;58.10;;;;;;6195617;23;20225;-86
2024/02/12 09:28:52;;;;;;;3.38;2.20;;;17.70;58.00;;;;;;6195322;23;20236;-86
2024/02/12 09:31:22;;;;;;;4.10;2.20;;;17.70;58.30;;;;;;6195860;23;20164;-85
2024/02/12 09:33:57;;;;;;;4.88;2.80;;;17.70;57.90;;;;;;6197816;23;20619;-86
2024/02/12 09:36:25;;;;;;;3.55;2.13;;;17.70;58.50;;;;;;6267187;22;20154;-86
2024/02/12 09:38:52;;;;;;;4.30;2.78;;;17.70;57.70;;;;;;6258766;22;20191;-86
2024/02/12 09:41:24;;;;;;;3.15;2.30;;;17.80;57.40;;;;;;6289644;22;20128;-83
2024/02/12 09:43:50;;;;;;;4.05;2.38;;;17.70;58.20;;;;;;6314944;22;20143;-85
2024/02/12 09:46:16;;;;;;;5.50;2.53;;;17.80;57.50;;;;;;6288580;22;20223;-84
2024/02/12 09:48:42;;;;;;;3.83;2.15;;;17.80;56.90;;;;;;6291237;22;20150;-86
2024/02/12 09:51:34;;;;;;;3.10;2.13;;;17.80;57.60;;;;;;6269833;22;20143;-85
2024/02/12 09:54:02;;;;;;;2.67;2.20;;;17.80;58.30;;;;;;6313873;22;20147;-86
2024/02/12 09:56:32;;;;;;;5.05;2.42;;;17.80;57.60;;;;;;6317319;22;20139;-85
2024/02/12 09:59:09;;;;;;;4.55;2.22;;;17.80;58.10;;;;;;6314779;22;20211;-86
2024/02/12 10:01:45;;;;;;;4.25;2.50;;;17.70;58.70;;;;;;6287972;22;20143;-85
2024/02/12 10:04:14;;;;;;;4.50;2.30;;;17.80;58.70;;;;;;6262617;22;20192;-85
2024/02/12 10:07:02;;;;;;;5.22;2.28;;;17.70;58.50;;;;;;6261571;22;20226;-86
2024/02/12 10:09:39;;;;;;;3.50;2.15;;;17.70;58.90;;;;;;6217608;22;20818;-87
2024/02/12 10:12:11;;;;;;;4.18;2.13;;;17.70;58.70;;;;;;6210073;22;20155;-86
2024/02/12 10:14:54;;;;;;;3.83;2.20;;;17.70;59.40;;;;;;6207954;22;20233;-86
2024/02/12 10:17:22;;;;;;;4.57;2.25;;;17.70;59.40;;;;;;6265468;22;20158;-86
2024/02/12 10:19:52;;;;;;;3.35;2.40;;;17.70;59.00;;;;;;6237098;22;20143;-87
2024/02/12 10:22:24;;;;;;;5.97;2.40;;;17.70;59.10;;;;;;6209743;22;20151;-86
2024/02/12 10:24:52;;;;;;;3.92;2.08;;;17.70;59.40;;;;;;6212601;22;20189;-87
2024/02/12 10:27:22;;;;;;;5.20;2.30;;;17.70;59.30;;;;;;6262929;22;20151;-86
2024/02/12 10:29:58;;;;;;;4.53;2.00;;;17.70;59.50;;;;;;6235959;22;20158;-87
2024/02/12 10:32:30;;;;;;;3.97;2.10;;;17.80;59.00;;;;;;6220573;23;20153;-87
2024/02/12 10:35:00;;;;;;;4.38;2.80;;;17.80;59.60;;;;;;6173537;23;20249;-86
2024/02/12 10:37:30;;;;;;;4.25;2.47;;;17.80;58.80;;;;;;6197925;23;20169;-86
2024/02/12 10:40:00;;;;;;;4.03;2.50;;;17.80;58.80;;;;;;6171223;23;20169;-84
2024/02/12 10:42:38;;;;;;;5.35;2.20;;;17.90;58.90;;;;;;6172559;23;20524;-86
2024/02/12 10:45:06;;;;;;;4.25;2.70;;;17.80;59.50;;;;;;6175951;23;20265;-85
2024/02/12 10:47:36;;;;;;;6.38;2.45;;;17.80;59.40;;;;;;6225263;23;20535;-86
2024/02/12 10:50:17;;;;;;;3.90;2.13;;;17.70;59.00;;;;;;6199355;23;20171;-86
2024/02/12 10:52:46;;;;;;;8.90;2.47;;;17.80;59.10;;;;;;6202268;23;20156;-86
2024/02/12 10:55:58;;;;;;;6.85;2.40;;;17.80;59.30;;;;;;6248060;23;20133;-86
2024/02/12 10:58:26;;;;;;;8.73;2.38;;;17.70;59.80;;;;;;6247209;23;20256;-87
2024/02/12 11:00:57;;;;;;;4.25;2.15;;;17.70;59.40;;;;;;6221541;23;20130;-86
2024/02/12 11:03:38;;;;;;;2.90;2.22;;;17.80;59.00;;;;;;6219884;22;20210;-87
2024/02/12 11:06:08;;;;;;;5.55;2.03;;;17.90;58.80;;;;;;6289242;22;20222;-86
2024/02/12 11:08:37;;;;;;;7.15;2.28;;;17.80;59.10;;;;;;6239977;22;20151;-86
2024/02/12 11:11:20;;;;;;;6.03;2.50;;;17.90;58.80;;;;;;6266268;22;20146;-86
2024/02/12 11:14:01;;;;;;;4.53;2.30;;;17.90;58.70;;;;;;6239465;22;20266;-86
2024/02/12 11:16:30;;;;;;;4.47;2.20;;;17.90;58.70;;;;;;6221945;23;20195;-85
2024/02/12 11:18:58;;;;;;;4.65;2.67;;;17.90;58.90;;;;;;6222676;23;20535;-86
2024/02/12 11:21:30;;;;;;;4.38;2.20;;;17.90;59.20;;;;;;6222856;23;20217;-86
2024/02/12 11:24:08;;;;;;;6.45;2.05;;;17.90;58.30;;;;;;6249784;23;20603;-85
2024/02/12 11:26:45;;;;;;;6.38;2.20;;;17.90;58.90;;;;;;6221920;23;20156;-86
2024/02/12 11:29:11;;;;;;;6.25;2.40;;;17.90;58.30;;;;;;6162936;23;20150;-85
2024/02/12 11:31:40;;;;;;;3.53;2.28;;;17.90;57.70;;;;;;6160475;23;20154;-87
2024/02/12 11:34:19;;;;;;;3.75;2.38;;;17.90;58.40;;;;;;6110747;23;20150;-85
2024/02/12 11:37:01;;;;;;;3.33;2.20;;;17.90;58.30;;;;;;6137877;23;20275;-86
2024/02/12 11:39:28;;;;;;;4.35;2.63;;;17.90;58.20;;;;;;6166120;23;20219;-87
2024/02/12 11:41:56;;;;;;;4.55;2.20;;;17.90;57.80;;;;;;6161508;23;20157;-86
2024/02/12 11:44:22;;;;;;;2.92;2.38;;;17.90;58.00;;;;;;6140168;23;20149;-86
2024/02/12 11:46:59;;;;;;;3.47;2.42;;;17.90;58.40;;;;;;6174134;23;20205;-87
2024/02/12 11:49:26;;;;;;;3.45;2.20;;;17.90;58.10;;;;;;6149644;23;20252;-86
2024/02/12 12:09:36;;;;;;;4.05;2.33;;;17.80;59.40;;;;;;6310385;22;20651;-88
2024/02/12 12:12:03;;;;;;;3.47;2.20;;;17.70;59.60;;;;;;6285236;22;20171;-86
2024/02/12 12:14:37;;;;;;;5.72;2.42;;;17.70;59.10;;;;;;6235004;22;20144;-87
2024/02/12 12:17:06;;;;;;;3.88;2.08;;;17.80;59.10;;;;;;6257851;22;20590;-86
2024/02/12 12:19:34;;;;;;;3.28;1.90;;;17.80;59.10;;;;;;6258464;22;20147;-86
2024/02/12 12:22:18;;;;;;;3.53;2.20;;;17.80;59.10;;;;;;6258269;22;20134;-87
2024/02/12 12:24:45;;;;;;;2.97;2.13;;;17.80;59.10;;;;;;6204936;22;20460;-86
2024/02/12 12:27:21;;;;;;;4.43;2.05;;;17.90;58.50;;;;;;6281936;22;20216;-85
2024/02/12 12:29:47;;;;;;;2.95;2.08;;;18.00;58.20;;;;;;6257960;22;20150;-85
2024/02/12 12:32:25;;;;;;;3.35;2.03;;;17.80;58.90;;;;;;6257493;22;20148;-84
2024/02/12 12:34:53;;;;;;;3.78;2.17;;;17.90;58.90;;;;;;6207288;22;20213;-85
2024/02/12 12:37:20;;;;;;;2.97;2.10;;;17.90;58.50;;;;;;6281120;22;20238;-85
2024/02/12 12:39:57;;;;;;;4.28;2.20;;;17.90;58.40;;;;;;6253844;22;20148;-86
2024/02/12 12:42:25;;;;;;;3.75;2.05;;;17.90;58.50;;;;;;6206423;22;20152;-85
2024/02/12 12:44:57;;;;;;;3.65;1.80;;;17.90;58.70;;;;;;6277205;22;20139;-85
2024/02/12 12:47:23;;;;;;;3.78;2.03;;;17.90;58.70;;;;;;6253332;22;20158;-85
2024/02/12 12:49:55;;;;;;;3.40;2.10;;;17.80;59.00;;;;;;6257766;22;20133;-85
2024/02/12 12:52:21;;;;;;;2.90;2.38;;;17.80;58.90;;;;;;6232579;22;20151;-84
2024/02/12 12:54:47;;;;;;;3.90;2.00;;;17.80;59.10;;;;;;6262501;22;20124;-84
2024/02/12 12:57:14;;;;;;;3.33;2.00;;;17.80;58.70;;;;;;6308737;22;20235;-85
2024/02/12 12:59:45;;;;;;;2.55;2.05;;;17.80;58.50;;;;;;6285297;22;20128;-84
2024/02/12 13:02:13;;;;;;;2.60;2.10;;;17.80;59.00;;;;;;6206284;22;20148;-84
2024/02/12 13:04:39;;;;;;;3.25;2.08;;;17.90;58.20;;;;;;6230691;22;20155;-84
2024/02/12 13:07:07;;;;;;;3.03;2.10;;;17.90;58.00;;;;;;6232475;22;20448;-85
2024/02/12 13:09:38;;;;;;;4.07;2.15;;;17.80;59.30;;;;;;6235020;22;20191;-85
2024/02/12 13:12:05;;;;;;;6.10;2.00;;;17.80;59.10;;;;;;6184655;22;20148;-84
2024/02/12 13:14:31;;;;;;;2.88;2.20;;;17.80;59.30;;;;;;6260219;22;20140;-85
2024/02/12 13:16:58;;;;;;;4.25;2.28;;;17.70;58.70;;;;;;6261003;22;20129;-85
2024/02/12 13:19:28;;;;;;;2.80;1.95;;;17.80;58.30;;;;;;6236012;22;20159;-85
2024/02/12 13:21:58;;;;;;;2.80;2.10;;;17.90;58.00;;;;;;6184010;22;20486;-84
2024/02/12 13:24:26;;;;;;;2.58;2.10;;;17.90;58.00;;;;;;6209036;22;20144;-85
2024/02/12 13:26:52;;;;;;;5.32;2.33;;;17.90;58.30;;;;;;6210666;22;20155;-84
2024/02/12 13:34:18;;;;;;;3.45;2.15;;;17.90;58.20;;;;;;6306069;22;20203;-85
2024/02/12 13:36:52;;;;;;;3.03;2.13;;;17.90;58.30;;;;;;6231496;22;20197;-86
2024/02/12 13:39:25;;;;;;;3.40;2.28;;;17.90;57.90;;;;;;6181516;22;20482;-85
2024/02/12 13:41:51;;;;;;;3.28;2.35;;;17.90;57.20;;;;;;6182755;22;20152;-85
2024/02/12 13:44:17;;;;;;;3.33;2.17;;;18.10;56.90;;;;;;6258012;22;20128;-86
2024/02/12 13:46:43;;;;;;;2.85;2.10;;;18.10;57.70;;;;;;6283253;22;20178;-85
2024/02/12 13:49:09;;;;;;;3.10;2.28;;;18.00;57.70;;;;;;6232727;22;20633;-85
2024/02/12 13:51:41;;;;;;;3.13;2.33;;;17.90;57.60;;;;;;6234439;22;20147;-86
2024/02/12 13:54:16;;;;;;;2.50;2.13;;;17.90;57.90;;;;;;6209612;22;20148;-85
2024/02/12 13:56:43;;;;;;;4.15;2.38;;;17.90;57.50;;;;;;6211996;22;20148;-84
2024/02/12 13:59:08;;;;;;;4.70;2.20;;;17.90;57.20;;;;;;6259515;22;20263;-85
2024/02/12 14:01:42;;;;;;;2.92;2.10;;;17.90;58.10;;;;;;6257368;22;20560;-84
2024/02/12 14:04:14;;;;;;;3.17;1.83;;;17.90;57.60;;;;;;6206167;22;20201;-84
2024/02/12 14:06:40;;;;;;;3.33;2.10;;;17.90;57.70;;;;;;6231530;22;20148;-84
2024/02/12 14:09:10;;;;;;;4.10;2.25;;;17.90;57.60;;;;;;6308160;22;20154;-83
2024/02/12 14:11:42;;;;;;;3.17;2.22;;;17.90;57.40;;;;;;6207166;22;20174;-84
2024/02/12 14:14:17;;;;;;;2.95;2.28;;;17.90;57.90;;;;;;6230655;22;20148;-85
2024/02/12 14:16:47;;;;;;;3.75;2.05;;;17.80;58.30;;;;;;6234753;22;20144;-84
2024/02/12 14:19:17;;;;;;;4.00;2.42;;;17.80;57.90;;;;;;6185049;22;20271;-84
2024/02/12 14:21:43;;;;;;;4.05;2.10;;;17.90;57.70;;;;;;6237987;22;20152;-85
2024/02/12 14:24:09;;;;;;;3.58;2.40;;;17.90;57.90;;;;;;6292162;22;20183;-86
2024/02/12 14:26:35;;;;;;;4.88;2.33;;;17.80;58.20;;;;;;6239601;22;20144;-86
2024/02/12 14:29:03;;;;;;;2.83;2.00;;;17.90;58.40;;;;;;6316779;22;20148;-85
2024/02/12 14:31:31;;;;;;;2.90;2.22;;;17.80;57.80;;;;;;6265743;22;20147;-85
2024/02/12 14:33:57;;;;;;;4.65;2.40;;;18.00;57.40;;;;;;6262924;22;20203;-84
2024/02/12 14:36:26;;;;;;;2.95;2.10;;;17.90;58.20;;;;;;6242796;22;20164;-85
2024/02/12 14:38:51;;;;;;;2.95;2.30;;;17.80;58.20;;;;;;6298452;22;20180;-85
2024/02/12 14:41:18;;;;;;;3.45;2.17;;;17.80;58.60;;;;;;6277834;22;20178;-86
2024/02/12 14:43:48;;;;;;;2.90;2.17;;;17.80;57.50;;;;;;6275004;22;20187;-87
2024/02/12 14:46:19;;;;;;;2.92;2.00;;;17.80;58.00;;;;;;6259471;22;20147;-86
2024/02/12 14:48:54;;;;;;;3.28;2.08;;;17.80;58.50;;;;;;6231790;22;20148;-86
2024/02/12 14:51:21;;;;;;;3.30;2.20;;;17.80;58.50;;;;;;6255883;22;20146;-86
2024/02/12 14:53:50;;;;;;;3.33;2.20;;;17.80;58.30;;;;;;6232296;22;20233;-85
2024/02/12 14:56:17;;;;;;;2.50;2.00;;;17.80;58.50;;;;;;6231089;22;20146;-86
2024/02/12 14:58:45;;;;;;;2.78;2.10;;;17.80;57.50;;;;;;6230119;22;20167;-86
2024/02/12 15:01:13;;;;;;;2.60;2.20;;;17.90;58.20;;;;;;6309341;22;20148;-83
2024/02/12 15:03:41;;;;;;;3.65;2.15;;;17.90;58.10;;;;;;6281636;22;20182;-85
2024/02/12 15:06:07;;;;;;;2.10;1.90;;;17.90;57.60;;;;;;6257073;22;20155;-84
2024/02/12 15:08:33;;;;;;;3.88;2.35;;;17.90;58.10;;;;;;6282558;22;20151;-84
2024/02/12 15:11:01;;;;;;;2.42;2.17;;;18.00;57.40;;;;;;6231196;22;20140;-85
2024/02/12 15:13:31;;;;;;;5.00;2.20;;;18.00;57.50;;;;;;6257280;22;20176;-86